Time;durP1;ratioP1;P1;durP2;ratioP2;P2;SDS_P1;SDS_P2;PMS_P1;PMS_P2;Temp;Humidity;BMP_temperature;BMP_pressure;BME280_temperature;BME280_humidity;BME280_pressure;Samples;Min_cycle;Max_cycle;Signal;HPM_P1;HPM_P2
2023/02/12 00:01:12;;;;;;;33.78;13.57;;;;;;;7.62;100.00;103820.50;5030690;28;20025;-43
2023/02/12 00:03:38;;;;;;;31.30;12.90;;;;;;;7.61;100.00;103821.47;5031962;28;20041;-43
2023/02/12 00:06:04;;;;;;;28.55;11.93;;;;;;;7.59;100.00;103817.16;5033467;28;20473;-43
2023/02/12 00:08:30;;;;;;;31.95;14.00;;;;;;;7.62;100.00;103815.13;5032927;28;20442;-42
2023/02/12 00:10:55;;;;;;;30.48;14.32;;;;;;;7.60;100.00;103806.31;5032354;28;20025;-43
2023/02/12 00:13:20;;;;;;;30.80;13.40;;;;;;;7.59;100.00;103815.31;5029256;28;20029;-43
2023/02/12 00:15:46;;;;;;;36.47;14.00;;;;;;;7.58;100.00;103810.03;5016119;28;20061;-43
2023/02/12 00:18:11;;;;;;;31.40;12.60;;;;;;;7.58;100.00;103812.72;5032317;28;20064;-42
2023/02/12 00:20:37;;;;;;;30.52;12.07;;;;;;;7.55;100.00;103816.44;5032935;28;20491;-42
2023/02/12 00:23:03;;;;;;;29.90;12.27;;;;;;;7.57;100.00;103819.91;5032090;28;20042;-43
2023/02/12 00:25:29;;;;;;;30.67;11.90;;;;;;;7.56;100.00;103822.69;5030649;28;20070;-43
2023/02/12 00:27:54;;;;;;;25.55;11.13;;;;;;;7.55;100.00;103824.47;5013720;28;20025;-41
2023/02/12 00:30:19;;;;;;;26.95;11.48;;;;;;;7.55;100.00;103823.63;5032748;28;20029;-42
2023/02/12 00:32:45;;;;;;;24.80;11.52;;;;;;;7.52;100.00;103821.13;5032772;28;20128;-44
2023/02/12 00:35:11;;;;;;;25.35;11.02;;;;;;;7.51;100.00;103820.25;5032068;28;20045;-43
2023/02/12 00:37:36;;;;;;;26.83;10.50;;;;;;;7.51;100.00;103816.72;5031257;28;20033;-43
2023/02/12 00:40:02;;;;;;;22.80;10.20;;;;;;;7.49;100.00;103816.81;5017845;28;20025;-43
2023/02/12 00:42:27;;;;;;;23.70;10.27;;;;;;;7.50;100.00;103818.53;5032444;28;20095;-42
2023/02/12 00:44:52;;;;;;;28.73;11.27;;;;;;;7.48;100.00;103815.09;5031671;28;20532;-43
2023/02/12 00:47:18;;;;;;;24.65;9.75;;;;;;;7.51;100.00;103814.91;5012596;28;20481;-43
2023/02/12 00:49:43;;;;;;;20.23;9.93;;;;;;;7.48;100.00;103812.41;5027777;28;20072;-42
2023/02/12 00:52:08;;;;;;;22.70;10.25;;;;;;;7.47;100.00;103819.56;5012452;28;20026;-43
2023/02/12 00:54:34;;;;;;;19.52;9.20;;;;;;;7.45;100.00;103813.44;5017147;28;20026;-43
2023/02/12 00:56:59;;;;;;;18.77;9.68;;;;;;;7.46;100.00;103811.63;5013011;28;20163;-43
2023/02/12 00:59:25;;;;;;;27.85;10.32;;;;;;;7.46;100.00;103817.00;5012306;28;20116;-43
2023/02/12 01:01:53;;;;;;;23.35;9.90;;;;;;;7.45;100.00;103812.56;5012779;28;20113;-42
2023/02/12 01:04:18;;;;;;;25.67;9.43;;;;;;;7.40;100.00;103812.00;5011797;28;20033;-43
2023/02/12 01:06:44;;;;;;;18.85;9.20;;;;;;;7.41;100.00;103806.53;5026918;28;20029;-42
2023/02/12 01:09:09;;;;;;;19.80;9.68;;;;;;;7.41;100.00;103805.66;5031583;28;20108;-44
2023/02/12 01:11:35;;;;;;;23.45;9.40;;;;;;;7.39;100.00;103804.88;5015085;28;20049;-44
2023/02/12 01:14:00;;;;;;;18.25;8.43;;;;;;;7.38;100.00;103805.84;5011807;28;20508;-43
2023/02/12 01:16:26;;;;;;;17.42;8.77;;;;;;;7.37;100.00;103809.47;5026391;28;20025;-44
2023/02/12 01:18:52;;;;;;;15.88;7.40;;;;;;;7.36;100.00;103808.59;5010876;28;20132;-43
2023/02/12 01:21:24;;;;;;;13.18;6.28;;;;;;;7.39;100.00;103802.22;5025902;28;20716;-45
2023/02/12 01:23:49;;;;;;;15.05;6.28;;;;;;;7.40;100.00;103804.81;5031728;28;20108;-44
2023/02/12 01:26:16;;;;;;;13.77;4.97;;;;;;;7.40;100.00;103807.50;5022820;28;20124;-44
2023/02/12 01:28:43;;;;;;;8.20;4.35;;;;;;;7.42;100.00;103791.31;5031666;28;20032;-44
2023/02/12 01:31:17;;;;;;;11.38;4.55;;;;;;;7.48;100.00;103790.97;5018320;28;20053;-43
2023/02/12 01:33:43;;;;;;;8.05;3.85;;;;;;;7.50;100.00;103789.03;5011790;28;20049;-43
2023/02/12 01:36:10;;;;;;;6.15;3.70;;;;;;;7.52;100.00;103781.78;5021276;28;20128;-42
2023/02/12 01:38:35;;;;;;;7.30;3.10;;;;;;;7.54;100.00;103787.06;5031396;28;20056;-43
2023/02/12 01:41:08;;;;;;;12.65;3.05;;;;;;;7.57;100.00;103784.19;5025100;28;20061;-44
2023/02/12 01:43:35;;;;;;;5.80;2.50;;;;;;;7.58;100.00;103776.09;5030902;28;20057;-44
2023/02/12 01:46:01;;;;;;;5.25;3.00;;;;;;;7.60;100.00;103778.66;5027762;28;20053;-43
2023/02/12 01:48:30;;;;;;;5.80;3.13;;;;;;;7.62;100.00;103780.28;5028671;28;20018;-44
2023/02/12 01:50:57;;;;;;;9.93;3.05;;;;;;;7.65;100.00;103781.94;5030699;28;20068;-43
2023/02/12 01:53:24;;;;;;;7.40;2.80;;;;;;;7.65;100.00;103780.09;5030545;28;20026;-43
2023/02/12 01:55:52;;;;;;;7.78;2.75;;;;;;;7.67;100.00;103777.34;5029034;28;20583;-43
2023/02/12 01:58:18;;;;;;;7.07;2.90;;;;;;;7.68;100.00;103790.66;5027217;28;20029;-44
2023/02/12 02:00:44;;;;;;;5.85;3.08;;;;;;;7.67;100.00;103786.25;5009851;28;20041;-42
2023/02/12 02:03:09;;;;;;;11.07;3.72;;;;;;;7.65;100.00;103780.09;5013175;28;20037;-44
2023/02/12 02:05:42;;;;;;;9.50;3.10;;;;;;;7.62;100.00;103785.66;5030362;28;20472;-42
2023/02/12 02:08:08;;;;;;;4.53;3.13;;;;;;;7.60;100.00;103784.88;5028854;28;20033;-43
2023/02/12 02:10:34;;;;;;;6.40;3.40;;;;;;;7.58;100.00;103789.47;5029276;28;20044;-46
2023/02/12 02:15:46;;;;;;;11.25;4.10;;;;;;;7.54;100.00;103795.97;5012647;28;20064;-44
2023/02/12 02:18:34;;;;;;;7.22;3.47;;;;;;;7.53;100.00;103798.72;5030557;28;20439;-43
2023/02/12 02:21:35;;;;;;;5.65;3.45;;;;;;;7.54;100.00;103787.91;5029836;28;20036;-43
2023/02/12 02:24:03;;;;;;;11.60;3.60;;;;;;;7.56;100.00;103798.56;5028758;28;20037;-43
2023/02/12 02:26:50;;;;;;;10.32;3.40;;;;;;;7.59;100.00;103795.69;5029811;28;20071;-43
2023/02/12 02:29:30;;;;;;;6.80;3.57;;;;;;;7.60;100.00;103790.22;5030203;28;20488;-42
2023/02/12 02:32:17;;;;;;;9.57;3.38;;;;;;;7.59;100.00;103793.03;5011136;28;22546;-43
2023/02/12 02:35:10;;;;;;;10.23;2.90;;;;;;;7.56;100.00;103785.16;5009206;28;20037;-44
2023/02/12 02:37:39;;;;;;;10.75;3.30;;;;;;;7.52;100.00;103792.50;5028721;28;20029;-42
2023/02/12 02:40:22;;;;;;;7.43;2.90;;;;;;;7.47;100.00;103795.44;5025838;28;20028;-42
2023/02/12 02:42:58;;;;;;;5.78;3.38;;;;;;;7.46;100.00;103798.22;5038393;28;20045;-44
2023/02/12 02:45:43;;;;;;;8.05;3.55;;;;;;;7.43;100.00;103793.06;5026368;28;20022;-43
2023/02/12 02:48:28;;;;;;;15.27;2.92;;;;;;;7.39;100.00;103788.81;5025001;28;20025;-43
2023/02/12 02:51:02;;;;;;;4.72;2.90;;;;;;;7.38;100.00;103789.78;5010416;28;20037;-45
2023/02/12 02:53:31;;;;;;;8.70;2.90;;;;;;;7.38;100.00;103785.28;5008630;28;20104;-45
2023/02/12 02:55:59;;;;;;;8.82;2.90;;;;;;;7.39;100.00;103781.63;5015751;28;20025;-43
2023/02/12 02:59:04;;;;;;;6.40;2.80;;;;;;;7.42;100.00;103783.28;5028217;28;20112;-44
2023/02/12 03:01:40;;;;;;;8.48;2.40;;;;;;;7.41;100.00;103785.09;4990458;28;20544;-43
2023/02/12 03:04:09;;;;;;;11.38;2.72;;;;;;;7.44;100.00;103784.03;5027015;28;20473;-45
2023/02/12 03:06:49;;;;;;;6.25;2.60;;;;;;;7.46;100.00;103783.00;5028025;28;20156;-43
2023/02/12 03:09:20;;;;;;;7.57;2.65;;;;;;;7.45;100.00;103775.94;5028382;28;20128;-43
2023/02/12 03:11:46;;;;;;;6.20;2.53;;;;;;;7.43;100.00;103772.47;5029613;28;20030;-42
2023/02/12 03:14:51;;;;;;;5.00;2.63;;;;;;;7.44;100.00;103767.97;5024381;28;20029;-45
2023/02/12 03:17:24;;;;;;;9.63;2.78;;;;;;;7.41;100.00;103769.00;5020763;28;20029;-42
2023/02/12 03:19:56;;;;;;;4.75;2.17;;;;;;;7.41;100.00;103768.16;5012075;28;20030;-43
2023/02/12 03:22:27;;;;;;;7.90;2.40;;;;;;;7.38;100.00;103768.34;5010484;28;20081;-44
2023/02/12 03:25:14;;;;;;;9.02;2.25;;;;;;;7.39;100.00;103770.91;4999117;28;20470;-44
2023/02/12 03:27:47;;;;;;;4.90;1.87;;;;;;;7.40;100.00;103766.44;5023642;28;20043;-42
2023/02/12 03:30:13;;;;;;;7.43;2.35;;;;;;;7.41;100.00;103769.00;5023438;28;20093;-42
2023/02/12 03:32:45;;;;;;;9.13;2.20;;;;;;;7.42;100.00;103767.19;5029670;28;20573;-42
2023/02/12 03:35:15;;;;;;;7.43;2.38;;;;;;;7.42;100.00;103751.13;5018662;28;20026;-43
2023/02/12 03:37:49;;;;;;;3.30;1.90;;;;;;;7.42;100.00;103751.13;5024225;28;20033;-43
2023/02/12 03:40:34;;;;;;;12.43;2.25;;;;;;;7.43;100.00;103755.53;5012665;28;20044;-43
2023/02/12 03:43:01;;;;;;;7.10;1.83;;;;;;;7.44;100.00;103760.78;5020522;28;20104;-42
2023/02/12 03:45:39;;;;;;;3.63;1.83;;;;;;;7.45;100.00;103764.31;5034805;28;20033;-42
2023/02/12 03:48:18;;;;;;;5.68;2.05;;;;;;;7.45;100.00;103758.97;5027224;28;20029;-43
2023/02/12 03:50:51;;;;;;;5.68;2.17;;;;;;;7.45;100.00;103764.31;5028425;28;20032;-42
2023/02/12 03:53:16;;;;;;;6.47;1.92;;;;;;;7.44;100.00;103762.63;5029899;28;20029;-43
2023/02/12 03:55:44;;;;;;;5.47;2.45;;;;;;;7.46;100.00;103771.44;5016395;28;20535;-41
2023/02/12 03:58:13;;;;;;;11.13;2.47;;;;;;;7.45;100.00;103764.31;5041208;28;20030;-45
2023/02/12 04:00:39;;;;;;;4.40;2.00;;;;;;;7.46;100.00;103771.44;5012808;28;20033;-43
2023/02/12 04:03:06;;;;;;;6.95;2.53;;;;;;;7.47;100.00;103767.78;5033529;28;20030;-43
2023/02/12 04:05:31;;;;;;;6.97;1.88;;;;;;;7.49;100.00;103771.25;5032858;28;20033;-44
2023/02/12 04:07:57;;;;;;;8.38;2.22;;;;;;;7.52;100.00;103776.41;5033296;28;20032;-43
2023/02/12 04:10:40;;;;;;;3.25;1.98;;;;;;;7.54;100.00;103779.88;5031351;28;20018;-44
2023/02/12 04:13:17;;;;;;;3.17;2.20;;;;;;;7.55;100.00;103770.88;5030934;28;20458;-43
2023/02/12 04:15:55;;;;;;;4.75;2.47;;;;;;;7.54;100.00;103774.53;5019155;28;20681;-43
2023/02/12 04:18:30;;;;;;;4.45;2.30;;;;;;;7.54;100.00;103777.19;5013436;28;20044;-43
2023/02/12 04:21:19;;;;;;;6.22;2.80;;;;;;;7.54;100.00;103774.53;5024258;28;20025;-44
2023/02/12 04:24:03;;;;;;;5.22;2.22;;;;;;;7.54;100.00;103777.19;5032906;28;20362;-43
2023/02/12 04:26:52;;;;;;;5.97;2.50;;;;;;;7.58;100.00;103791.28;5012848;28;20493;-41
2023/02/12 04:29:19;;;;;;;7.00;2.33;;;;;;;7.58;100.00;103788.59;5017896;28;20029;-44
2023/02/12 04:31:48;;;;;;;4.75;2.60;;;;;;;7.61;100.00;103778.56;5032271;28;20036;-43
2023/02/12 04:34:33;;;;;;;6.97;2.70;;;;;;;7.60;100.00;103794.72;5030467;28;20512;-44
2023/02/12 04:37:06;;;;;;;6.90;3.72;;;;;;;7.59;100.00;103783.16;5029030;28;20583;-42
2023/02/12 04:39:35;;;;;;;13.75;3.03;;;;;;;7.62;100.00;103790.16;5027804;28;20013;-45
2023/02/12 04:42:01;;;;;;;10.05;2.90;;;;;;;7.62;100.00;103803.56;5012243;28;20116;-44
2023/02/12 04:44:29;;;;;;;6.97;3.05;;;;;;;7.60;100.00;103800.94;5010307;28;20121;-43
2023/02/12 04:46:55;;;;;;;4.70;3.13;;;;;;;7.60;100.00;103800.94;5026353;28;20033;-43
2023/02/12 04:49:21;;;;;;;8.75;3.70;;;;;;;7.61;100.00;103802.69;5009707;28;20339;-44
2023/02/12 04:51:47;;;;;;;6.97;3.53;;;;;;;7.62;100.00;103803.56;5011511;28;20355;-42
2023/02/12 04:54:14;;;;;;;4.20;3.30;;;;;;;7.60;100.00;103811.69;5015786;28;20033;-43
2023/02/12 04:56:40;;;;;;;6.95;3.70;;;;;;;7.61;100.00;103808.06;5031171;28;20464;-43
2023/02/12 04:59:06;;;;;;;6.97;4.20;;;;;;;7.62;100.00;103801.72;5030025;28;20119;-44
2023/02/12 05:01:35;;;;;;;7.38;3.42;;;;;;;7.62;100.00;103804.41;5029857;28;20025;-43
2023/02/12 05:04:01;;;;;;;6.75;3.47;;;;;;;7.65;100.00;103800.69;5029795;28;20065;-42
2023/02/12 05:06:26;;;;;;;7.63;4.00;;;;;;;7.63;100.00;103800.78;5030380;28;20071;-42
2023/02/12 05:08:55;;;;;;;6.43;3.88;;;;;;;7.62;100.00;103796.38;5028501;28;20097;-42
2023/02/12 05:11:20;;;;;;;5.25;3.67;;;;;;;7.63;100.00;103799.91;5013053;28;20037;-43
2023/02/12 05:13:50;;;;;;;4.30;3.80;;;;;;;7.63;100.00;103795.41;5010452;28;20026;-46
2023/02/12 05:16:16;;;;;;;12.27;4.35;;;;;;;7.63;100.00;103791.88;5030099;28;20026;-44
2023/02/12 05:18:41;;;;;;;7.45;3.90;;;;;;;7.62;100.00;103791.00;5018559;28;20034;-43
2023/02/12 05:21:07;;;;;;;7.22;4.03;;;;;;;7.63;100.00;103792.72;4994640;28;20029;-43
2023/02/12 05:23:34;;;;;;;6.78;4.63;;;;;;;7.64;100.00;103796.28;5030170;28;20113;-43
2023/02/12 05:26:02;;;;;;;8.48;4.13;;;;;;;7.62;100.00;103792.84;5026364;28;20081;-42
2023/02/12 05:28:28;;;;;;;6.43;4.13;;;;;;;7.61;100.00;103793.78;5012918;28;20026;-43
2023/02/12 05:30:54;;;;;;;9.52;4.45;;;;;;;7.59;100.00;103795.69;5011562;28;20140;-42
2023/02/12 05:33:20;;;;;;;8.43;4.93;;;;;;;7.59;100.00;103793.88;5011881;28;20051;-42
2023/02/12 05:35:45;;;;;;;6.47;4.70;;;;;;;7.57;100.00;103789.56;5020781;28;20034;-42
2023/02/12 05:38:10;;;;;;;6.68;4.68;;;;;;;7.57;100.00;103798.47;5030388;28;20029;-42
2023/02/12 05:40:37;;;;;;;13.43;4.70;;;;;;;7.55;100.00;103797.69;5027495;28;20132;-45
2023/02/12 05:43:02;;;;;;;6.20;5.30;;;;;;;7.55;100.00;103805.72;5030618;28;20092;-43
2023/02/12 05:45:28;;;;;;;5.55;4.80;;;;;;;7.54;100.00;103812.03;5019749;28;20026;-44
2023/02/12 05:47:55;;;;;;;14.27;4.80;;;;;;;7.54;100.00;103803.16;5008095;28;20488;-44
2023/02/12 05:50:21;;;;;;;14.48;5.60;;;;;;;7.56;100.00;103806.59;5018321;28;20083;-44
2023/02/12 05:52:47;;;;;;;11.77;5.40;;;;;;;7.52;100.00;103802.38;5027370;28;20045;-45
2023/02/12 05:55:12;;;;;;;8.80;5.20;;;;;;;7.53;100.00;103806.75;5009602;28;20476;-44
2023/02/12 05:57:37;;;;;;;6.40;5.10;;;;;;;7.52;100.00;103802.38;5009642;28;20057;-43
2023/02/12 06:00:04;;;;;;;9.52;5.63;;;;;;;7.50;100.00;103802.44;5026042;28;20116;-44
2023/02/12 06:02:29;;;;;;;8.35;4.55;;;;;;;7.52;100.00;103805.91;5021145;28;20101;-42
2023/02/12 06:04:55;;;;;;;11.65;5.22;;;;;;;7.53;100.00;103802.28;5015008;28;20457;-44
2023/02/12 06:07:20;;;;;;;5.95;4.65;;;;;;;7.52;100.00;103803.22;5018141;28;20033;-43
2023/02/12 06:09:45;;;;;;;7.53;5.07;;;;;;;7.54;100.00;103798.66;5012774;28;20107;-43
2023/02/12 06:12:11;;;;;;;11.05;4.93;;;;;;;7.55;100.00;103796.81;5025760;28;20034;-44
2023/02/12 06:14:36;;;;;;;11.57;5.57;;;;;;;7.55;100.00;103808.41;5029252;28;20073;-44
2023/02/12 06:17:02;;;;;;;13.23;5.63;;;;;;;7.56;100.00;103809.28;5027117;28;20033;-44
2023/02/12 06:19:27;;;;;;;8.45;5.45;;;;;;;7.54;100.00;103806.69;5018050;28;20029;-42
2023/02/12 06:21:52;;;;;;;7.90;4.55;;;;;;;7.53;100.00;103802.28;5009977;28;20022;-43
2023/02/12 06:24:18;;;;;;;9.93;5.13;;;;;;;7.51;100.00;103795.28;5013922;28;20496;-43
2023/02/12 06:26:43;;;;;;;9.05;5.00;;;;;;;7.50;100.00;103805.13;5021853;28;20434;-44
2023/02/12 06:29:09;;;;;;;7.30;4.68;;;;;;;7.49;100.00;103803.41;5018382;28;20040;-42
2023/02/12 06:31:35;;;;;;;7.20;4.50;;;;;;;7.50;100.00;103802.44;5013444;28;20065;-43
2023/02/12 06:34:03;;;;;;;10.32;4.90;;;;;;;7.47;100.00;103794.59;5029472;28;20053;-43
2023/02/12 06:36:29;;;;;;;;;;;;;;;7.46;100.00;103792.88;5030001;28;20167;-43
2023/02/12 06:38:54;;;;;;;9.98;5.13;;;;;;;7.46;100.00;103798.22;5028730;28;20004;-44
2023/02/12 06:41:20;;;;;;;12.13;6.38;;;;;;;7.44;100.00;103806.34;5027177;28;20113;-43
2023/02/12 06:43:46;;;;;;;12.77;5.28;;;;;;;7.46;100.00;103799.09;5021789;28;20439;-43
2023/02/12 06:46:12;;;;;;;10.18;6.35;;;;;;;7.48;100.00;103807.06;5025117;28;20033;-43
2023/02/12 06:48:37;;;;;;;16.88;6.47;;;;;;;7.50;100.00;103802.44;5028829;28;20068;-44
2023/02/12 06:51:10;;;;;;;11.75;7.05;;;;;;;7.52;100.00;103802.38;5028773;28;20052;-43
2023/02/12 06:53:36;;;;;;;14.95;7.50;;;;;;;7.48;100.00;103799.88;5017652;28;20034;-44
2023/02/12 06:56:05;;;;;;;13.77;7.80;;;;;;;7.51;100.00;103806.88;5009208;28;20496;-43
2023/02/12 06:58:31;;;;;;;18.90;8.85;;;;;;;7.51;100.00;103806.00;5010448;28;20426;-43
2023/02/12 07:00:56;;;;;;;16.10;8.38;;;;;;;7.52;100.00;103810.41;5009111;28;20117;-43
2023/02/12 07:03:22;;;;;;;20.48;8.70;;;;;;;7.50;100.00;103815.84;5011173;28;20509;-44
2023/02/12 07:05:47;;;;;;;23.98;9.35;;;;;;;7.49;100.00;103819.47;5010905;28;20464;-44
2023/02/12 07:08:14;;;;;;;24.10;10.48;;;;;;;7.46;100.00;103814.31;5027892;28;20017;-44
2023/02/12 07:10:39;;;;;;;18.35;9.65;;;;;;;7.48;100.00;103823.13;5026417;28;20098;-43
2023/02/12 07:13:05;;;;;;;17.85;10.32;;;;;;;7.47;100.00;103824.06;5017775;28;20053;-43
2023/02/12 07:15:30;;;;;;;27.33;11.05;;;;;;;7.46;100.00;103825.88;5008725;28;20066;-42
2023/02/12 07:17:55;;;;;;;22.02;11.57;;;;;;;7.46;100.00;103825.88;5009236;28;20029;-43
2023/02/12 07:20:21;;;;;;;19.70;11.65;;;;;;;7.46;100.00;103835.75;5015402;28;20094;-43
2023/02/12 07:22:46;;;;;;;20.48;11.73;;;;;;;7.45;100.00;103845.59;5027245;28;20034;-43
2023/02/12 07:25:11;;;;;;;24.42;11.90;;;;;;;7.46;100.00;103841.09;5015938;28;20116;-45
2023/02/12 07:27:38;;;;;;;28.63;13.05;;;;;;;7.47;100.00;103842.81;5022175;28;20103;-44
2023/02/12 07:30:05;;;;;;;23.70;12.73;;;;;;;7.48;100.00;103844.56;5024249;28;20045;-44
2023/02/12 07:32:32;;;;;;;22.88;12.90;;;;;;;7.50;100.00;103857.88;5009706;28;20133;-43
2023/02/12 07:34:57;;;;;;;26.60;13.05;;;;;;;7.48;100.00;103855.28;5030721;28;20025;-43
2023/02/12 07:37:22;;;;;;;25.17;13.65;;;;;;;7.46;100.00;103865.22;5020128;28;20508;-44
2023/02/12 07:39:48;;;;;;;32.45;14.18;;;;;;;7.47;100.00;103861.56;5020819;28;20388;-43
2023/02/12 07:42:14;;;;;;;23.00;12.73;;;;;;;7.46;100.00;103858.03;5031117;28;20033;-44
2023/02/12 07:44:39;;;;;;;35.03;15.60;;;;;;;7.45;100.00;103856.31;5026185;28;20033;-46
2023/02/12 07:47:05;;;;;;;33.47;14.90;;;;;;;7.46;100.00;103851.81;5015964;28;20037;-42
2023/02/12 07:49:30;;;;;;;34.22;15.15;;;;;;;7.48;100.00;103857.97;5022280;28;20034;-44
2023/02/12 07:51:55;;;;;;;30.35;16.15;;;;;;;7.48;100.00;103861.50;5012294;28;20450;-43
2023/02/12 07:54:21;;;;;;;32.35;15.40;;;;;;;7.52;100.00;103856.81;5013732;28;20046;-43
2023/02/12 07:56:46;;;;;;;40.83;16.73;;;;;;;7.54;100.00;103860.28;5013518;28;20037;-43
2023/02/12 07:59:14;;;;;;;40.17;16.67;;;;;;;7.54;100.00;103862.97;5014796;28;20040;-43
2023/02/12 08:01:50;;;;;;;38.65;16.27;;;;;;;7.52;100.00;103859.50;5020666;28;20034;-43
2023/02/12 08:04:18;;;;;;;36.30;16.95;;;;;;;7.53;100.00;103858.56;5030889;28;20045;-43
2023/02/12 08:06:44;;;;;;;;;;;;;;;7.56;100.00;103861.06;5030255;28;20084;-44
2023/02/12 08:09:12;;;;;;;27.48;15.30;;;;;;;7.56;100.00;103868.25;5025258;28;19918;-43
2023/02/12 08:11:39;;;;;;;48.67;15.70;;;;;;;7.60;100.00;103862.59;5017666;28;20111;-43
2023/02/12 08:14:07;;;;;;;38.90;16.45;;;;;;;7.63;100.00;103862.41;5011465;28;20470;-43
2023/02/12 08:16:36;;;;;;;35.83;15.93;;;;;;;7.64;100.00;103863.31;5021513;28;20163;-43
2023/02/12 08:19:02;;;;;;;43.38;16.70;;;;;;;7.66;100.00;103864.94;5016583;28;20041;-43
2023/02/12 08:21:28;;;;;;;32.05;15.45;;;;;;;7.66;100.00;103869.41;5012149;28;20042;-44
2023/02/12 08:23:54;;;;;;;38.78;16.40;;;;;;;7.67;100.00;103868.50;5031286;28;20483;-44
2023/02/12 08:26:29;;;;;;;30.33;16.25;;;;;;;7.70;100.00;103871.84;5030870;28;20021;-43
2023/02/12 08:29:16;;;;;;;32.58;15.95;;;;;;;7.73;100.00;103872.63;5031040;28;20451;-45
2023/02/12 08:31:43;;;;;;;34.20;16.55;;;;;;;7.73;100.00;103867.28;5030971;28;20045;-44
2023/02/12 08:34:23;;;;;;;33.60;16.17;;;;;;;7.74;100.00;103875.22;5030899;28;20501;-43
2023/02/12 08:36:49;;;;;;;30.80;15.10;;;;;;;7.80;100.00;103877.53;5029510;28;20419;-44
2023/02/12 08:39:16;;;;;;;43.45;16.45;;;;;;;7.82;100.00;103880.13;5026058;28;20037;-43
2023/02/12 08:41:42;;;;;;;33.65;15.38;;;;;;;7.83;100.00;103877.38;5028496;28;20477;-43
2023/02/12 08:44:08;;;;;;;37.97;16.13;;;;;;;7.84;100.00;103875.53;5017953;28;20374;-45
2023/02/12 08:46:35;;;;;;;38.67;15.77;;;;;;;7.84;100.00;103875.53;5025579;28;20048;-44
2023/02/12 08:49:03;;;;;;;32.67;15.27;;;;;;;7.89;100.00;103886.88;5030875;28;20025;-43
2023/02/12 08:51:31;;;;;;;36.92;16.27;;;;;;;7.89;100.00;103879.69;5029166;28;20378;-43
2023/02/12 08:53:58;;;;;;;40.35;16.83;;;;;;;7.91;100.00;103884.97;5027554;28;20140;-44
2023/02/12 08:56:25;;;;;;;38.60;15.25;;;;;;;7.98;100.00;103880.97;5029859;28;20029;-44
2023/02/12 08:58:50;;;;;;;39.50;15.60;;;;;;;8.03;100.00;103888.72;5030843;28;20037;-43
2023/02/12 09:01:21;;;;;;;40.67;15.40;;;;;;;8.03;100.00;103889.63;5029530;28;20100;-44
2023/02/12 09:03:48;;;;;;;42.90;16.67;;;;;;;8.04;100.00;103891.34;5028106;28;20044;-42
2023/02/12 09:06:14;;;;;;;35.75;15.30;;;;;;;8.03;100.00;103894.97;5030595;28;20025;-43
2023/02/12 09:08:40;;;;;;;37.50;14.75;;;;;;;8.03;100.00;103894.97;5030547;28;20136;-44
2023/02/12 09:11:07;;;;;;;56.83;15.98;;;;;;;8.05;100.00;103895.72;5027941;28;20135;-43
2023/02/12 09:13:33;;;;;;;50.50;15.80;;;;;;;8.12;100.00;103910.50;5016687;28;20030;-46
2023/02/12 09:16:00;;;;;;;37.80;14.50;;;;;;;8.14;100.00;103905.94;5016412;28;20036;-45
2023/02/12 09:18:26;;;;;;;41.08;14.40;;;;;;;8.17;100.00;103907.56;5017713;28;20080;-45
2023/02/12 09:20:51;;;;;;;40.85;16.55;;;;;;;8.16;100.00;103908.50;5017344;28;20060;-44
2023/02/12 09:23:16;;;;;;;44.65;16.02;;;;;;;8.17;100.00;103912.09;5028868;28;20040;-43
2023/02/12 09:25:43;;;;;;;50.88;15.82;;;;;;;8.19;100.00;103915.50;5030290;28;20022;-43
2023/02/12 09:28:10;;;;;;;49.55;16.48;;;;;;;8.25;100.00;103915.16;5021015;28;20120;-43
2023/02/12 09:30:36;;;;;;;40.03;15.50;;;;;;;8.22;100.00;103907.31;5010885;28;20403;-43
2023/02/12 09:33:02;;;;;;;34.95;14.27;;;;;;;8.22;100.00;103910.00;5018168;28;20504;-43
2023/02/12 09:35:28;;;;;;;35.95;16.00;;;;;;;8.21;100.00;103908.25;5018844;28;20034;-43
2023/02/12 09:37:53;;;;;;;42.15;15.98;;;;;;;8.20;100.00;103910.06;5029466;28;20111;-43
2023/02/12 09:40:43;;;;;;;32.30;14.50;;;;;;;8.23;100.00;103906.34;5030721;28;20132;-44
2023/02/12 09:43:24;;;;;;;37.00;14.30;;;;;;;8.24;100.00;103906.25;5029473;28;20124;-43
2023/02/12 09:46:02;;;;;;;32.65;13.93;;;;;;;8.33;100.00;103902.16;5029532;28;20033;-43
2023/02/12 09:49:10;;;;;;;48.60;14.30;;;;;;;8.36;100.00;103908.19;5025515;28;20065;-43
2023/02/12 09:51:38;;;;;;;46.08;15.30;;;;;;;8.37;100.00;103903.69;5012930;28;20042;-46
2023/02/12 09:54:15;;;;;;;34.92;13.88;;;;;;;8.40;100.00;103892.81;5010036;28;20080;-44
2023/02/12 09:56:44;;;;;;;43.35;13.23;;;;;;;8.42;100.00;103898.94;5000374;28;20138;-44
2023/02/12 09:59:13;;;;;;;32.70;12.50;;;;;;;8.40;100.00;103906.25;5024175;28;20108;-44
2023/02/12 10:01:38;;;;;;;33.85;13.60;;;;;;;8.40;100.00;103898.19;5025230;28;20038;-44
2023/02/12 10:04:04;;;;;;;42.35;14.05;;;;;;;8.43;100.00;103907.88;5029810;28;20164;-43
2023/02/12 10:06:35;;;;;;;44.15;13.68;;;;;;;8.39;100.00;103908.97;5031081;28;20036;-44
2023/02/12 10:09:23;;;;;;;52.08;14.38;;;;;;;8.42;100.00;103903.44;5029685;28;20474;-44
2023/02/12 10:11:52;;;;;;;;;;;;;;;8.47;100.00;103904.88;5020502;28;20029;-44
2023/02/12 10:14:42;;;;;;;36.50;13.43;;;;;;;8.49;100.00;103896.75;5012542;28;19918;-42
2023/02/12 10:17:18;;;;;;;43.25;13.52;;;;;;;8.52;100.00;103900.09;5011192;28;20998;-45
2023/02/12 10:20:21;;;;;;;39.83;13.43;;;;;;;8.56;100.00;103898.97;5009762;28;20041;-44
2023/02/12 10:22:53;;;;;;;38.00;14.85;;;;;;;8.63;100.00;103895.91;5017418;28;20511;-44
2023/02/12 10:25:52;;;;;;;42.60;15.82;;;;;;;8.64;100.00;103901.19;5030033;28;20485;-44
2023/02/12 10:28:23;;;;;;;53.33;17.00;;;;;;;8.65;100.00;103896.69;5004549;28;20038;-43
2023/02/12 10:30:53;;;;;;;37.15;14.75;;;;;;;8.70;100.00;103897.25;5018004;28;20025;-43
2023/02/12 10:33:29;;;;;;;45.90;15.20;;;;;;;8.70;100.00;103894.56;5027595;28;20502;-43
2023/02/12 10:36:02;;;;;;;44.03;15.98;;;;;;;8.67;100.00;103905.50;5027471;28;20056;-43
2023/02/12 10:38:34;;;;;;;45.83;17.38;;;;;;;8.67;100.00;103905.50;5030493;28;20493;-43
2023/02/12 10:41:01;;;;;;;44.80;15.88;;;;;;;8.66;100.00;103898.41;5027447;28;20033;-44
2023/02/12 10:43:27;;;;;;;52.03;17.38;;;;;;;8.72;100.00;103903.41;5030924;28;20468;-43
2023/02/12 10:45:52;;;;;;;55.83;18.17;;;;;;;8.73;100.00;103899.75;5018400;28;20061;-42
2023/02/12 10:48:23;;;;;;;57.17;18.90;;;;;;;8.79;100.00;103905.63;5016548;28;20109;-42
2023/02/12 10:51:07;;;;;;;46.38;17.75;;;;;;;8.80;100.00;103898.41;5029274;28;20061;-43
2023/02/12 10:53:39;;;;;;;41.15;17.00;;;;;;;8.77;100.00;103896.78;5022665;28;20030;-43
2023/02/12 10:56:10;;;;;;;47.10;18.95;;;;;;;8.77;100.00;103904.84;5012901;28;20117;-44
2023/02/12 10:58:38;;;;;;;48.20;17.83;;;;;;;8.83;100.00;103900.06;5025623;28;20029;-43
2023/02/12 11:01:04;;;;;;;43.08;17.17;;;;;;;8.72;100.00;103898.03;5028819;28;20071;-42
2023/02/12 11:03:33;;;;;;;44.95;17.00;;;;;;;8.72;100.00;103898.03;5031004;28;20033;-43
2023/02/12 11:06:21;;;;;;;42.65;16.63;;;;;;;8.81;100.00;103888.53;5030639;28;20388;-43
2023/02/12 11:08:47;;;;;;;42.55;18.27;;;;;;;8.89;100.00;103895.16;5019225;28;20386;-43
2023/02/12 11:11:27;;;;;;;56.53;18.10;;;;;;;8.95;100.00;103888.53;5028365;28;20029;-43
2023/02/12 11:13:56;;;;;;;44.70;17.70;;;;;;;8.95;100.00;103891.22;5013125;28;20364;-44
2023/02/12 11:16:30;;;;;;;44.38;17.48;;;;;;;8.91;100.00;103893.22;5028506;28;20087;-43
2023/02/12 11:19:06;;;;;;;41.15;17.00;;;;;;;8.76;100.00;103884.31;5021426;28;20061;-44
2023/02/12 11:21:33;;;;;;;49.15;15.90;;;;;;;8.65;100.00;103892.16;5009696;28;20036;-43
2023/02/12 11:24:20;;;;;;;41.40;16.67;;;;;;;8.72;100.00;103889.97;5017219;28;20545;-43
2023/02/12 11:26:46;;;;;;;44.22;16.83;;;;;;;8.69;100.00;103888.34;5029436;28;20017;-44
2023/02/12 11:29:20;;;;;;;38.05;14.52;;;;;;;8.50;100.00;103893.09;5029624;28;20472;-44
2023/02/12 11:32:10;;;;;;;30.42;13.02;;;;;;;8.36;100.00;103892.09;5014187;28;20025;-42